Time;durP1;ratioP1;P1;durP2;ratioP2;P2;SDS_P1;SDS_P2;PMS_P1;PMS_P2;Temp;Humidity;BMP_temperature;BMP_pressure;BME280_temperature;BME280_humidity;BME280_pressure;Samples;Min_cycle;Max_cycle;Signal;HPM_P1;HPM_P2
2021/12/22 00:01:40;;;;;;;7.50;6.23;;;;;;;18.81;44.66;98154.69;4862492;29;20266;-90
2021/12/22 00:04:06;;;;;;;6.00;5.40;;;;;;;19.15;44.52;98212.47;4847300;29;20290;-90
2021/12/22 00:06:35;;;;;;;6.03;5.47;;;;;;;19.07;44.55;98207.81;4863148;29;20290;-90
2021/12/22 00:09:04;;;;;;;5.77;5.17;;;;;;;19.28;44.58;98236.94;4862510;29;20273;-90
2021/12/22 00:11:30;;;;;;;6.63;5.77;;;;;;;18.86;44.59;98166.00;4861710;29;20322;-91
2021/12/22 00:13:57;;;;;;;6.13;5.53;;;;;;;19.09;44.63;98208.72;4858728;29;20295;-91
2021/12/22 00:16:23;;;;;;;7.10;5.93;;;;;;;19.25;44.62;98234.19;4862696;29;20293;-91
2021/12/22 00:18:50;;;;;;;6.47;5.73;;;;;;;19.00;44.67;98190.44;4860806;29;20333;-90
2021/12/22 00:21:17;;;;;;;7.37;5.83;;;;;;;19.00;44.53;98200.63;4843353;29;20675;-91
2021/12/22 00:23:43;;;;;;;6.00;5.40;;;;;;;18.81;44.51;98175.94;4858641;29;20696;-90
2021/12/22 00:26:10;;;;;;;7.33;5.70;;;;;;;19.12;44.52;98235.25;4858209;29;20295;-91
2021/12/22 00:28:36;;;;;;;6.10;5.17;;;;;;;18.74;44.45;98167.94;4846911;29;20812;-90
2021/12/22 00:31:10;;;;;;;6.77;5.67;;;;;;;18.84;44.66;98186.28;4861389;29;20320;-91
2021/12/22 00:33:45;;;;;;;6.63;5.80;;;;;;;18.81;44.75;98183.59;4863223;29;20297;-91
2021/12/22 00:36:12;;;;;;;7.67;6.00;;;;;;;18.71;44.49;98161.00;4871637;29;20269;-91
2021/12/22 00:38:39;;;;;;;6.40;5.43;;;;;;;19.05;44.59;98234.88;4871575;29;20316;-91
2021/12/22 00:41:06;;;;;;;6.03;5.43;;;;;;;18.64;44.53;98153.84;4876613;29;20262;-91
2021/12/22 00:43:32;;;;;;;6.40;5.80;;;;;;;19.25;44.86;98262.22;4861430;29;20297;-91
2021/12/22 00:45:59;;;;;;;6.20;5.60;;;;;;;18.95;44.67;98214.84;4862458;29;20233;-90
2021/12/22 00:48:25;;;;;;;6.53;5.83;;;;;;;18.89;44.58;98210.28;4879761;29;20774;-91
2021/12/22 00:50:52;;;;;;;6.10;5.50;;;;;;;19.23;44.79;98271.47;4887421;29;20309;-91
2021/12/22 00:53:19;;;;;;;7.07;5.70;;;;;;;18.90;44.52;98204.41;4845963;29;20304;-91
2021/12/22 00:55:46;;;;;;;7.37;5.93;;;;;;;18.85;44.73;98203.31;4845472;29;20245;-91
2021/12/22 00:58:13;;;;;;;6.20;5.57;;;;;;;18.85;44.57;98195.66;4845664;29;20720;-91
2021/12/22 01:00:39;;;;;;;6.17;5.57;;;;;;;16.72;45.16;97849.66;4902198;23;20347;-81
2021/12/22 01:03:06;;;;;;;6.23;5.60;;;;;;;15.79;44.16;97678.09;4890059;29;20205;-83
2021/12/22 01:05:36;;;;;;;6.63;5.73;;;;;;;15.32;44.77;97583.44;4876740;29;20212;-88
2021/12/22 01:08:03;;;;;;;6.37;5.77;;;;;;;16.22;44.66;97782.63;4902246;29;20228;-87
2021/12/22 01:10:33;;;;;;;6.43;5.47;;;;;;;19.28;44.65;98288.78;4903626;29;20403;-87
2021/12/22 01:13:01;;;;;;;6.63;5.33;;;;;;;13.24;44.43;97234.69;4912554;29;20209;-89
2021/12/22 01:15:28;;;;;;;5.90;5.30;;;;;;;9.85;44.75;96742.00;4904697;29;20208;-90
2021/12/22 01:18:08;;;;;;;5.97;5.37;;;;;;;8.84;44.59;96475.03;4885830;29;20721;-91
2021/12/22 01:24:21;;;;;;;6.03;5.43;;;;;;;17.26;44.57;98001.53;4816557;29;20220;-89
2021/12/22 01:26:39;;;;;;;6.20;5.60;;;;;;;16.25;44.80;97768.47;4803622;29;20944;-89
2021/12/22 01:29:06;;;;;;;6.20;5.60;;;;;;;18.80;44.59;98207.28;4847230;29;20297;-83
2021/12/22 01:31:33;;;;;;;5.83;5.23;;;;;;;13.27;44.57;97242.44;4875191;29;20658;-82
2021/12/22 01:34:00;;;;;;;6.70;5.80;;;;;;;14.41;44.49;97491.47;4875757;29;20487;-83
2021/12/22 01:36:27;;;;;;;5.63;5.13;;;;;;;19.28;44.78;98291.34;4860244;29;20204;-81
2021/12/22 01:38:54;;;;;;;6.30;5.70;;;;;;;8.40;44.52;96398.84;4860128;29;20210;-80
2021/12/22 01:41:21;;;;;;;6.73;5.93;;;;;;;19.29;44.54;98292.19;4875695;29;20664;-81
2021/12/22 01:43:49;;;;;;;6.10;5.50;;;;;;;16.93;44.58;97926.09;4890867;29;20289;-81
2021/12/22 01:49:10;;;;;;;6.90;6.10;;;;;;;16.46;44.64;97841.47;4876102;29;20240;-83
2021/12/22 01:49:40;;;;;;;5.90;5.30;;;;;;;17.49;44.66;98032.47;4882481;29;20254;-84
2021/12/22 01:52:07;;;;;;;6.70;6.00;;;;;;;15.75;44.51;97688.84;4860549;29;20281;-80
2021/12/22 01:54:49;;;;;;;5.90;5.40;;;;;;;18.26;44.20;98173.03;4860153;29;20205;-83
2021/12/22 01:57:18;;;;;;;6.63;5.63;;;;;;;17.55;44.32;98006.50;4891469;29;20568;-82
2021/12/22 01:59:46;;;;;;;6.07;5.43;;;;;;;19.32;44.26;98297.44;4860484;29;20241;-80
2021/12/22 02:02:14;;;;;;;6.30;5.47;;;;;;;16.55;44.33;97816.59;4879411;29;20199;-82
2021/12/22 02:04:41;;;;;;;6.77;6.07;;;;;;;19.31;44.24;98299.13;4868346;29;20210;-82
2021/12/22 02:07:08;;;;;;;6.10;5.50;;;;;;;17.41;44.77;98054.00;4858572;29;20198;-84
2021/12/22 02:12:10;;;;;;;6.50;5.90;;;;;;;17.21;44.20;97929.28;4897200;29;20249;-81
2021/12/22 02:14:40;;;;;;;5.80;5.20;;;;;;;19.31;44.35;98291.50;4881215;29;20205;-82
2021/12/22 02:17:09;;;;;;;5.87;5.27;;;;;;;16.28;44.42;97798.19;4896175;29;20270;-83
2021/12/22 02:19:43;;;;;;;6.97;5.67;;;;;;;16.09;44.17;97782.78;4897111;29;20241;-82
2021/12/22 02:22:13;;;;;;;6.60;5.90;;;;;;;17.21;44.34;97914.94;4880550;29;20241;-81
2021/12/22 02:24:48;;;;;;;5.80;5.20;;;;;;;18.33;44.18;98160.69;4865141;29;20213;-80
2021/12/22 02:27:28;;;;;;;6.60;5.80;;;;;;;18.22;44.16;98149.06;4880740;29;20197;-80
2021/12/22 02:30:01;;;;;;;6.03;5.40;;;;;;;19.29;44.39;98275.22;4885492;29;20225;-81
2021/12/22 02:35:13;;;;;;;6.27;5.67;;;;;;;19.30;44.37;98278.66;4895602;29;20282;-82
2021/12/22 02:37:45;;;;;;;7.23;6.40;;;;;;;19.29;44.25;98279.44;4874116;29;20210;-82
2021/12/22 02:40:16;;;;;;;6.23;5.60;;;;;;;18.45;44.58;98188.47;4882191;29;20260;-82
2021/12/22 02:42:45;;;;;;;5.93;5.30;;;;;;;13.94;44.21;97368.25;4896297;29;20257;-84
2021/12/22 02:45:14;;;;;;;5.20;4.70;;;;;;;16.18;44.03;97875.44;4889207;29;20206;-79
2021/12/22 02:47:41;;;;;;;6.20;5.60;;;;;;;19.28;44.47;98298.09;4863499;29;20466;-82
2021/12/22 02:50:08;;;;;;;6.23;5.63;;;;;;;13.46;44.90;97320.91;4889933;29;20380;-83
2021/12/22 02:52:49;;;;;;;6.57;5.73;;;;;;;17.56;44.23;98003.19;4881909;29;20248;-85
2021/12/22 02:55:29;;;;;;;5.77;5.17;;;;;;;15.97;44.38;97780.47;4899066;29;20213;-85
2021/12/22 02:58:03;;;;;;;6.30;5.67;;;;;;;17.49;44.42;97993.47;4882624;29;20209;-83
2021/12/22 03:05:24;;;;;;;5.53;5.03;;;;;;;16.81;44.60;97936.44;4896814;29;20219;-81
2021/12/22 03:07:51;;;;;;;6.30;5.30;;;;;;;16.68;44.34;97900.19;4882068;29;20276;-88
2021/12/22 03:10:23;;;;;;;5.90;5.30;;;;;;;19.25;44.27;98310.66;4869343;29;20276;-89
2021/12/22 03:12:53;;;;;;;5.80;5.20;;;;;;;19.25;44.52;98308.09;4914260;29;20245;-89
2021/12/22 03:15:20;;;;;;;5.93;5.33;;;;;;;17.51;44.39;98009.69;4896494;29;20209;-86
2021/12/22 03:17:47;;;;;;;6.53;5.43;;;;;;;9.92;44.40;96786.78;4881936;29;20214;-90
2021/12/22 03:20:15;;;;;;;6.10;5.50;;;;;;;15.86;44.31;97722.34;4896557;29;20233;-89
2021/12/22 03:22:43;;;;;;;6.40;5.40;;;;;;;17.10;44.27;97938.00;4895493;29;20202;-89
2021/12/22 03:25:15;;;;;;;5.77;5.23;;;;;;;19.24;44.40;98313.97;4878972;29;20210;-87
2021/12/22 03:27:49;;;;;;;5.90;5.20;;;;;;;16.32;44.39;97805.19;4877179;29;20214;-88
2021/12/22 03:30:17;;;;;;;5.70;5.10;;;;;;;14.57;44.21;97599.41;4868019;29;20252;-90
2021/12/22 03:32:43;;;;;;;6.23;5.63;;;;;;;17.49;44.28;98006.19;4867075;29;20233;-89
2021/12/22 03:35:16;;;;;;;5.80;5.30;;;;;;;13.77;44.15;97432.13;4896970;29;20225;-83
2021/12/22 03:37:45;;;;;;;5.67;5.07;;;;;;;11.01;44.14;96959.44;4881865;29;20205;-80
2021/12/22 03:40:11;;;;;;;5.93;5.33;;;;;;;17.35;44.41;97987.63;4881391;29;20225;-81
2021/12/22 03:42:38;;;;;;;5.97;5.37;;;;;;;19.25;44.34;98316.63;4895985;29;20256;-84
2021/12/22 03:45:05;;;;;;;6.33;5.73;;;;;;;19.27;44.21;98321.84;4912640;29;20221;-85
2021/12/22 03:47:32;;;;;;;5.57;5.03;;;;;;;19.25;44.27;98315.75;4912171;29;20229;-81
2021/12/22 03:49:59;;;;;;;6.00;5.10;;;;;;;19.28;44.29;98311.72;4889396;29;20874;-83
2021/12/22 03:52:25;;;;;;;5.73;5.10;;;;;;;19.29;44.12;98323.66;4885495;29;20712;-84
2021/12/22 03:54:59;;;;;;;5.97;5.37;;;;;;;19.30;44.12;98322.84;4910606;29;20206;-83
2021/12/22 03:57:26;;;;;;;5.67;5.17;;;;;;;18.65;44.16;98205.66;4885161;29;20243;-83
2021/12/22 03:59:53;;;;;;;6.00;5.40;;;;;;;19.31;43.81;98321.19;4895645;29;20285;-86
2021/12/22 04:02:20;;;;;;;6.83;5.57;;;;;;;16.89;44.46;97892.06;4891516;29;20262;-81
2021/12/22 04:04:49;;;;;;;5.73;5.13;;;;;;;16.37;44.26;97801.22;4879171;29;20241;-81
2021/12/22 04:07:16;;;;;;;5.87;5.20;;;;;;;15.93;44.44;97724.44;4860353;29;20209;-82
2021/12/22 04:09:43;;;;;;;5.43;4.90;;;;;;;18.63;44.33;98185.22;4886218;29;20226;-81
2021/12/22 04:12:10;;;;;;;5.73;5.17;;;;;;;19.34;44.24;98316.25;4881125;29;20226;-83
2021/12/22 04:14:37;;;;;;;6.10;5.50;;;;;;;16.82;44.30;97907.75;4900136;29;20214;-79
2021/12/22 04:17:03;;;;;;;5.63;5.10;;;;;;;19.01;44.38;98307.72;4889291;29;20205;-80
2021/12/22 04:19:30;;;;;;;5.83;5.13;;;;;;;16.13;44.00;97762.75;4882434;29;20234;-82
2021/12/22 04:21:57;;;;;;;5.40;4.80;;;;;;;18.07;44.13;98100.84;4861974;29;20300;-81
2021/12/22 04:24:23;;;;;;;6.47;5.43;;;;;;;19.32;44.16;98311.06;4861214;29;20277;-81
2021/12/22 04:26:51;;;;;;;6.10;5.20;;;;;;;19.32;44.13;98311.06;4876815;29;20258;-82
2021/12/22 04:29:18;;;;;;;6.10;5.27;;;;;;;17.32;44.33;97951.91;4861519;29;20731;-84
2021/12/22 04:31:44;;;;;;;5.90;5.30;;;;;;;19.32;44.42;98312.72;4860585;29;20226;-82
2021/12/22 04:34:14;;;;;;;5.63;5.07;;;;;;;19.30;44.09;98317.75;4861343;29;20234;-82
2021/12/22 04:36:40;;;;;;;5.10;4.57;;;;;;;17.24;44.25;97957.38;4860856;29;20632;-77
2021/12/22 04:39:08;;;;;;;5.37;4.87;;;;;;;19.27;44.18;98317.59;4861286;29;20241;-80
2021/12/22 04:41:35;;;;;;;5.77;5.20;;;;;;;19.25;44.12;98321.72;4861066;29;20311;-82
2021/12/22 04:44:02;;;;;;;5.90;4.93;;;;;;;19.27;44.35;98325.25;4861287;29;20300;-80
2021/12/22 04:46:29;;;;;;;7.03;5.60;;;;;;;19.27;44.23;98325.25;4861418;29;20221;-81
2021/12/22 04:48:56;;;;;;;5.47;4.97;;;;;;;18.98;44.44;98271.88;4893480;29;20266;-82
2021/12/22 04:51:30;;;;;;;5.43;4.93;;;;;;;16.92;44.17;97919.25;4876423;29;20326;-82
2021/12/22 04:54:05;;;;;;;5.73;4.87;;;;;;;18.56;44.27;98200.09;4862968;29;20300;-80
2021/12/22 04:56:32;;;;;;;5.30;4.80;;;;;;;18.51;44.28;98257.50;4892166;29;20212;-82
2021/12/22 04:58:59;;;;;;;5.83;5.23;;;;;;;17.20;44.16;97998.66;4894737;29;20217;-82
2021/12/22 05:01:26;;;;;;;5.70;4.87;;;;;;;18.52;44.56;98193.06;4876729;29;20601;-80
2021/12/22 05:03:56;;;;;;;6.13;5.50;;;;;;;18.01;43.90;98147.97;4876363;29;20210;-80
2021/12/22 05:06:26;;;;;;;5.83;5.20;;;;;;;19.24;44.12;98326.72;4893618;29;20202;-80
2021/12/22 05:08:52;;;;;;;5.80;5.20;;;;;;;16.43;44.21;97842.13;4881150;29;20756;-82
2021/12/22 05:11:19;;;;;;;5.17;4.67;;;;;;;19.23;44.27;98343.69;4861532;29;20245;-81
2021/12/22 05:13:46;;;;;;;6.23;5.20;;;;;;;16.76;44.26;97904.91;4846343;29;20594;-81
2021/12/22 05:16:19;;;;;;;5.37;4.87;;;;;;;19.23;44.33;98337.72;4855295;29;20234;-81
2021/12/22 05:19:10;;;;;;;5.17;4.67;;;;;;;16.20;44.23;97873.84;4861417;29;20594;-80
2021/12/22 05:21:37;;;;;;;5.17;4.67;;;;;;;19.23;44.27;98342.81;4867451;29;20290;-81
2021/12/22 05:24:04;;;;;;;5.73;4.93;;;;;;;18.68;44.02;98266.91;4894181;29;20213;-81
2021/12/22 05:26:32;;;;;;;5.57;5.00;;;;;;;19.21;44.27;98345.28;4894505;29;20241;-81
2021/12/22 05:28:59;;;;;;;5.17;4.67;;;;;;;16.76;44.45;97980.16;4909880;29;20524;-82
2021/12/22 05:31:27;;;;;;;5.20;4.70;;;;;;;14.96;44.42;97605.84;4878685;29;20273;-80
2021/12/22 05:33:54;;;;;;;5.13;4.63;;;;;;;16.50;44.43;97878.88;4862422;29;20293;-80
2021/12/22 05:36:20;;;;;;;5.77;5.07;;;;;;;15.62;44.29;97714.28;4845005;29;20630;-80
2021/12/22 05:38:47;;;;;;;5.47;4.77;;;;;;;19.17;44.43;98338.28;4860161;29;20617;-82
2021/12/22 05:41:14;;;;;;;5.50;4.43;;;;;;;19.22;44.48;98354.66;4860084;29;20585;-82
2021/12/22 05:43:40;;;;;;;5.13;4.63;;;;;;;18.50;44.19;98222.69;4875402;29;20300;-80
2021/12/22 05:46:07;;;;;;;5.33;4.83;;;;;;;16.32;44.15;97828.00;4853219;29;20289;-85
2021/12/22 05:48:34;;;;;;;5.60;4.90;;;;;;;19.21;44.36;98342.72;4878153;29;20206;-83
2021/12/22 05:51:01;;;;;;;5.43;4.93;;;;;;;18.48;44.42;98217.50;4878463;29;20230;-83
2021/12/22 05:53:28;;;;;;;5.83;5.23;;;;;;;15.92;44.25;97832.53;4877397;29;20225;-82
2021/12/22 05:55:55;;;;;;;5.17;4.67;;;;;;;19.20;44.27;98343.53;4865090;29;20563;-80
2021/12/22 05:58:22;;;;;;;5.47;4.90;;;;;;;18.53;44.51;98327.19;4875290;29;20608;-82
2021/12/22 06:00:49;;;;;;;5.03;4.53;;;;;;;19.21;44.51;98339.28;4861420;29;20483;-79
2021/12/22 06:03:16;;;;;;;5.40;4.87;;;;;;;19.20;44.19;98337.56;4854619;29;20199;-83
2021/12/22 06:05:45;;;;;;;5.53;4.90;;;;;;;16.41;44.06;97843.72;4891539;29;20787;-79
2021/12/22 06:08:12;;;;;;;5.03;4.57;;;;;;;19.20;44.29;98341.00;4886258;29;20257;-80
2021/12/22 06:10:39;;;;;;;4.70;4.30;;;;;;;19.21;44.62;98339.28;4875849;29;20232;-79
2021/12/22 06:13:07;;;;;;;5.27;4.77;;;;;;;16.78;44.44;97915.13;4892884;29;20252;-80
2021/12/22 06:15:34;;;;;;;5.50;5.00;;;;;;;18.53;44.06;98230.47;4892749;29;20244;-84
2021/12/22 06:18:02;;;;;;;5.40;4.90;;;;;;;18.62;44.27;98289.50;4893247;29;20838;-79
2021/12/22 06:20:29;;;;;;;5.47;4.93;;;;;;;18.86;44.29;98278.91;4875980;29;20640;-79
2021/12/22 06:22:56;;;;;;;5.50;4.73;;;;;;;18.83;44.13;98267.69;4877372;29;20208;-81
2021/12/22 06:25:26;;;;;;;5.33;4.83;;;;;;;19.20;44.36;98343.53;4887416;29;20206;-77
2021/12/22 06:27:52;;;;;;;5.87;4.73;;;;;;;18.01;44.33;98147.97;4880278;29;20231;-79
2021/12/22 06:30:20;;;;;;;5.40;4.30;;;;;;;17.08;44.42;97978.56;4844335;29;20281;-81
2021/12/22 06:32:50;;;;;;;4.97;4.47;;;;;;;17.46;44.38;98055.19;4859798;29;20345;-79
2021/12/22 06:35:19;;;;;;;4.80;4.40;;;;;;;17.06;44.34;97964.03;4859791;29;20293;-82
2021/12/22 06:37:46;;;;;;;5.60;4.87;;;;;;;16.63;44.35;97886.34;4876567;29;20205;-80
2021/12/22 06:40:13;;;;;;;5.03;4.53;;;;;;;16.98;44.39;97980.50;4847687;29;20286;-79
2021/12/22 06:42:40;;;;;;;4.60;4.20;;;;;;;18.67;44.33;98244.78;4860251;29;20208;-80
2021/12/22 06:45:08;;;;;;;4.73;4.20;;;;;;;17.65;44.89;98075.69;4862716;29;20736;-78
2021/12/22 06:47:36;;;;;;;5.23;4.37;;;;;;;18.62;44.30;98284.41;4866185;29;20300;-80
2021/12/22 06:50:03;;;;;;;5.13;4.63;;;;;;;19.21;44.25;98344.41;4891606;29;20257;-79
2021/12/22 06:52:30;;;;;;;4.90;4.20;;;;;;;18.37;44.55;98194.78;4896684;29;20755;-84
2021/12/22 06:54:57;;;;;;;5.10;4.57;;;;;;;18.64;44.52;98242.06;4877921;29;20281;-80
2021/12/22 06:57:23;;;;;;;6.00;4.77;;;;;;;17.02;43.71;97952.84;4866052;29;20261;-78
2021/12/22 07:02:43;;;;;;;8.93;7.30;;;;;;;19.03;38.45;98307.78;4867273;29;20347;-87
2021/12/22 07:05:10;;;;;;;15.03;7.97;;;;;;;18.94;36.63;98300.56;4832810;29;20206;-88
2021/12/22 07:07:37;;;;;;;14.60;7.67;;;;;;;18.78;35.35;98272.56;4848838;29;20235;-88
2021/12/22 07:10:07;;;;;;;10.67;8.27;;;;;;;18.96;34.30;98306.63;4848689;29;20281;-88
2021/12/22 07:12:39;;;;;;;12.03;8.13;;;;;;;19.04;33.91;98327.38;4834517;29;20669;-91
2021/12/22 07:15:10;;;;;;;10.10;8.27;;;;;;;18.83;32.89;98293.16;4834470;29;20341;-89
2021/12/22 07:17:41;;;;;;;13.57;9.00;;;;;;;18.58;30.94;98264.66;4834947;29;20238;-90
2021/12/22 07:20:08;;;;;;;10.93;9.13;;;;;;;18.75;29.91;98291.88;4848299;29;20681;-89
2021/12/22 07:22:35;;;;;;;13.33;10.00;;;;;;;18.51;28.89;98260.06;4848118;29;20302;-88
2021/12/22 07:25:02;;;;;;;17.93;10.73;;;;;;;18.47;27.95;98273.41;4847618;29;20321;-89
2021/12/22 07:27:28;;;;;;;15.40;9.70;;;;;;;18.62;27.65;98307.31;4848075;29;20230;-89
2021/12/22 07:29:55;;;;;;;12.97;10.27;;;;;;;18.38;27.34;98285.66;4847853;29;20246;-89
2021/12/22 07:32:22;;;;;;;14.53;10.50;;;;;;;18.40;26.83;98302.75;4847610;29;20243;-90
2021/12/22 07:34:55;;;;;;;14.03;9.53;;;;;;;18.50;26.85;98332.97;4831443;29;20203;-90
2021/12/22 07:37:23;;;;;;;23.60;10.97;;;;;;;18.18;26.81;98300.66;4848160;29;20238;-90
2021/12/22 07:39:49;;;;;;;14.87;9.97;;;;;;;17.56;26.57;98206.50;4848405;29;20645;-89
2021/12/22 07:42:16;;;;;;;13.83;9.70;;;;;;;18.04;27.97;98305.81;4833586;29;20227;-88
2021/12/22 07:44:42;;;;;;;12.63;9.20;;;;;;;17.81;30.45;98285.84;4848940;29;20290;-87
2021/12/22 07:47:09;;;;;;;12.03;8.77;;;;;;;17.80;31.58;98284.09;4881625;29;20279;-88
2021/12/22 07:49:36;;;;;;;13.67;9.30;;;;;;;18.03;32.54;98332.03;4849201;29;20290;-91
2021/12/22 07:52:02;;;;;;;13.27;8.27;;;;;;;17.80;33.23;98297.69;4848883;29;20262;-91
2021/12/22 07:54:29;;;;;;;16.30;8.93;;;;;;;17.59;34.03;98260.88;4848598;29;20286;-91
2021/12/22 07:56:56;;;;;;;12.07;8.10;;;;;;;17.85;34.45;98318.28;4834280;29;20637;-91
2021/12/22 07:59:22;;;;;;;10.37;7.73;;;;;;;17.79;34.73;98305.22;4848949;29;20749;-90
2021/12/22 08:01:49;;;;;;;12.17;7.87;;;;;;;17.86;34.63;98313.28;4864067;29;20275;-87
2021/12/22 08:04:16;;;;;;;10.27;7.77;;;;;;;17.88;35.26;98324.41;4834225;29;20251;-88
2021/12/22 08:06:43;;;;;;;13.60;7.30;;;;;;;17.67;35.15;98274.91;4832541;29;20966;-87
2021/12/22 08:09:10;;;;;;;10.90;7.77;;;;;;;17.97;35.29;98324.94;4848044;29;20317;-87
2021/12/22 08:11:37;;;;;;;11.27;7.80;;;;;;;17.92;35.72;98311.06;4836354;29;20269;-87
2021/12/22 08:14:04;;;;;;;10.40;8.07;;;;;;;17.84;35.21;98298.72;4848620;29;20227;-87
2021/12/22 08:16:30;;;;;;;12.47;7.70;;;;;;;17.72;35.66;98283.69;4848256;29;20269;-87
2021/12/22 08:18:57;;;;;;;7.10;6.33;;;;;;;17.99;35.44;98313.19;4863032;29;20263;-86
2021/12/22 08:21:24;;;;;;;8.67;7.00;;;;;;;17.87;35.73;98292.16;4843220;29;20314;-89
2021/12/22 08:23:51;;;;;;;10.07;7.63;;;;;;;18.12;35.10;98333.41;4814252;29;20266;-87
2021/12/22 08:26:17;;;;;;;9.90;8.27;;;;;;;18.04;34.07;98311.78;4829045;29;20871;-87
2021/12/22 08:28:49;;;;;;;11.40;8.90;;;;;;;18.36;33.80;98361.00;4847351;29;20645;-87
2021/12/22 09:09:05;;;;;;;13.80;9.43;;;;;;;18.35;33.79;98382.16;4955032;23;20233;-89
2021/12/22 09:11:33;;;;;;;19.80;9.20;;;;;;;18.31;34.08;98376.00;4869328;29;20269;-87
2021/12/22 09:14:02;;;;;;;14.20;9.13;;;;;;;18.29;35.04;98376.72;4849241;29;20317;-89
2021/12/22 09:16:30;;;;;;;9.60;8.10;;;;;;;18.21;35.29;98369.53;4867332;29;20712;-89
2021/12/22 09:18:59;;;;;;;10.13;8.37;;;;;;;18.05;35.77;98330.44;4879185;29;20562;-88
2021/12/22 09:21:26;;;;;;;11.40;9.30;;;;;;;18.13;33.67;98347.00;4849192;29;20350;-88
2021/12/22 09:23:53;;;;;;;17.67;8.93;;;;;;;18.30;33.02;98379.38;4862859;29;20213;-89
2021/12/22 09:26:19;;;;;;;12.73;10.07;;;;;;;18.12;32.52;98347.81;4873474;29;20237;-89
2021/12/22 09:28:46;;;;;;;9.87;8.77;;;;;;;18.08;32.81;98335.69;4879710;29;20289;-90
2021/12/22 09:31:12;;;;;;;11.03;8.73;;;;;;;18.27;33.86;98359.69;4881108;29;20250;-90
2021/12/22 09:33:39;;;;;;;12.73;9.07;;;;;;;18.29;34.77;98369.94;4860333;29;20280;-90
2021/12/22 09:36:07;;;;;;;10.30;8.10;;;;;;;18.35;34.80;98375.38;4879943;29;20240;-88
2021/12/22 09:38:34;;;;;;;10.00;8.00;;;;;;;18.41;34.73;98385.06;4870874;29;20278;-89
2021/12/22 09:41:01;;;;;;;11.17;8.07;;;;;;;18.34;35.49;98357.47;4849386;29;20229;-89
2021/12/22 09:43:28;;;;;;;10.70;8.10;;;;;;;18.40;35.51;98370.56;4849001;29;20237;-90
2021/12/22 09:46:00;;;;;;;10.53;8.33;;;;;;;18.41;35.63;98362.16;4857741;29;20241;-90
2021/12/22 09:48:35;;;;;;;12.77;7.87;;;;;;;18.51;35.69;98369.50;4869439;29;20306;-90
2021/12/22 09:53:34;;;;;;;13.87;9.37;;;;;;;18.29;32.71;98318.22;4898129;29;20894;-89
2021/12/22 09:56:01;;;;;;;14.73;8.30;;;;;;;18.40;33.75;98337.50;4883015;29;20763;-89
2021/12/22 09:58:27;;;;;;;11.20;9.10;;;;;;;18.38;33.23;98331.47;4883137;29;20890;-90
2021/12/22 10:00:54;;;;;;;10.37;8.87;;;;;;;18.27;32.79;98313.88;4879965;29;20332;-89
2021/12/22 10:03:22;;;;;;;10.37;8.23;;;;;;;18.16;32.69;98293.75;4881073;29;20245;-89
2021/12/22 10:05:48;;;;;;;12.73;8.60;;;;;;;18.25;33.22;98312.06;4866527;29;20296;-90
2021/12/22 10:08:20;;;;;;;11.63;8.33;;;;;;;18.47;34.36;98352.31;4864174;29;20237;-90
2021/12/22 10:10:48;;;;;;;10.73;8.00;;;;;;;18.56;34.31;98368.09;4879792;29;20256;-90
2021/12/22 10:13:17;;;;;;;7.90;7.20;;;;;;;18.04;34.93;98267.66;4879654;29;20253;-90
2021/12/22 10:15:43;;;;;;;13.37;7.87;;;;;;;18.30;35.47;98323.38;4864364;29;20738;-90
2021/12/22 10:18:21;;;;;;;9.10;7.53;;;;;;;17.99;36.11;98254.69;4864143;29;20228;-90
2021/12/22 10:20:48;;;;;;;10.17;7.10;;;;;;;17.79;36.34;98219.66;4864055;29;20260;-90
2021/12/22 10:23:22;;;;;;;9.43;8.00;;;;;;;18.56;36.30;98347.72;4879703;29;20216;-91
2021/12/22 10:25:59;;;;;;;9.37;7.23;;;;;;;18.56;36.69;98345.19;4879171;29;20308;-90
2021/12/22 10:28:27;;;;;;;8.57;7.10;;;;;;;18.38;36.82;98303.47;4879599;29;20320;-90
2021/12/22 10:30:56;;;;;;;9.27;6.10;;;;;;;17.90;37.08;98221.13;4866294;29;20308;-90
2021/12/22 10:33:26;;;;;;;9.00;7.03;;;;;;;18.40;37.18;98301.88;4867179;29;20271;-90
2021/12/22 10:35:59;;;;;;;7.93;6.67;;;;;;;18.27;37.21;98292.69;4868827;29;20237;-90
2021/12/22 10:38:28;;;;;;;9.40;6.90;;;;;;;18.15;37.50;98257.25;4883275;29;20369;-90
2021/12/22 10:41:08;;;;;;;9.10;7.10;;;;;;;18.33;37.46;98282.84;4867105;29;20641;-91
2021/12/22 10:43:43;;;;;;;8.17;6.83;;;;;;;18.34;37.27;98283.69;4869188;29;20319;-91
2021/12/22 10:46:15;;;;;;;7.37;6.53;;;;;;;18.36;37.69;98289.75;4867809;29;20248;-91
2021/12/22 10:51:31;;;;;;;7.50;6.40;;;;;;;18.62;37.66;98320.91;4887053;29;20234;-89
2021/12/22 10:53:58;;;;;;;11.97;6.50;;;;;;;18.41;37.29;98280.72;4882322;29;20320;-90
2021/12/22 10:56:32;;;;;;;8.87;6.73;;;;;;;18.49;37.82;98282.88;4882561;29;20245;-90
2021/12/22 10:59:08;;;;;;;8.57;6.87;;;;;;;18.65;38.17;98302.41;4882752;29;20299;-90
2021/12/22 11:02:05;;;;;;;7.17;6.07;;;;;;;18.39;37.89;98255.19;4898027;29;20260;-90
2021/12/22 11:04:33;;;;;;;6.77;6.17;;;;;;;18.00;38.20;98182.69;4884955;29;20654;-91
2021/12/22 11:07:22;;;;;;;8.37;5.83;;;;;;;18.10;38.29;98197.66;4882476;29;20855;-91
2021/12/22 11:09:49;;;;;;;7.90;6.30;;;;;;;18.50;38.22;98255.78;4884296;29;20301;-90
2021/12/22 11:12:17;;;;;;;8.67;6.47;;;;;;;18.46;38.74;98256.38;4881904;29;20767;-91
2021/12/22 11:14:48;;;;;;;7.03;5.60;;;;;;;18.48;38.62;98253.16;4881866;29;20248;-90
2021/12/22 11:17:17;;;;;;;7.20;5.63;;;;;;;18.00;38.71;98175.03;4883522;29;20213;-90
2021/12/22 11:19:44;;;;;;;7.10;5.47;;;;;;;18.66;38.74;98281.22;4882604;29;20217;-90
2021/12/22 11:22:18;;;;;;;5.90;5.30;;;;;;;18.00;38.73;98152.16;4897887;29;20320;-91
2021/12/22 11:24:49;;;;;;;6.97;5.50;;;;;;;18.14;39.10;98179.22;4883417;29;20204;-90
2021/12/22 11:27:24;;;;;;;7.50;5.10;;;;;;;18.60;39.09;98252.91;4883192;29;20202;-90
2021/12/22 11:29:57;;;;;;;6.73;5.10;;;;;;;18.04;38.98;98151.56;4882580;29;20213;-90
2021/12/22 11:32:25;;;;;;;5.53;5.03;;;;;;;18.46;39.20;98224.19;4883624;29;20304;-90
2021/12/22 11:35:03;;;;;;;7.23;5.43;;;;;;;18.21;39.26;98182.97;4881968;29;20285;-91
2021/12/22 11:37:30;;;;;;;5.63;4.80;;;;;;;18.04;39.17;98150.66;4882319;29;20244;-90
2021/12/22 11:39:57;;;;;;;5.43;4.63;;;;;;;18.44;39.40;98210.50;4881731;29;20248;-91
2021/12/22 11:42:29;;;;;;;6.63;5.23;;;;;;;18.41;39.76;98201.84;4881162;29;20731;-91
2021/12/22 11:45:11;;;;;;;5.60;4.97;;;;;;;18.52;39.50;98216.88;4897728;29;20325;-91
2021/12/22 11:47:45;;;;;;;7.70;5.37;;;;;;;18.44;39.29;98202.84;4882995;29;20296;-90
2021/12/22 11:50:14;;;;;;;5.90;5.07;;;;;;;18.70;39.54;98240.72;4882099;29;20252;-91
2021/12/22 11:53:03;;;;;;;5.60;5.00;;;;;;;18.52;39.68;98204.13;4897342;29;20682;-89
2021/12/22 11:55:38;;;;;;;5.17;4.50;;;;;;;18.57;39.23;98214.56;4880949;29;20297;-90
2021/12/22 11:58:20;;;;;;;6.33;5.33;;;;;;;18.71;39.50;98229.72;4881766;29;20650;-90
2021/12/22 12:00:55;;;;;;;6.00;5.10;;;;;;;18.36;39.48;98168.50;4913556;29;20317;-90
2021/12/22 12:03:30;;;;;;;6.00;4.97;;;;;;;18.50;39.72;98187.91;4900958;29;20205;-90
2021/12/22 12:06:04;;;;;;;6.50;5.03;;;;;;;18.34;39.67;98151.38;4881991;29;20213;-90
2021/12/22 12:08:43;;;;;;;5.70;5.03;;;;;;;18.47;39.58;98164.84;4881675;29;20304;-91
2021/12/22 12:11:11;;;;;;;5.90;4.93;;;;;;;18.07;39.91;98098.28;4865659;29;20233;-90
2021/12/22 12:21:48;;;;;;;4.60;4.20;;;;;;;18.74;40.18;98185.75;4913665;29;20233;-90
2021/12/22 12:24:47;;;;;;;5.63;4.80;;;;;;;18.73;40.29;98184.88;4880879;29;20300;-90
2021/12/22 12:27:33;;;;;;;5.10;4.50;;;;;;;18.64;40.16;98168.25;4885194;29;20770;-91
2021/12/22 12:30:03;;;;;;;6.27;4.77;;;;;;;18.75;40.25;98196.00;4881728;29;20296;-90
2021/12/22 12:32:53;;;;;;;5.00;4.50;;;;;;;18.56;40.20;98154.28;4896741;29;20321;-90
2021/12/22 12:35:19;;;;;;;4.83;4.43;;;;;;;18.75;40.81;98182.41;4888926;29;20393;-89
2021/12/22 12:38:14;;;;;;;4.37;3.80;;;;;;;18.74;40.50;98175.56;4913351;29;20210;-90
2021/12/22 12:43:42;;;;;;;4.63;4.03;;;;;;;18.74;40.53;98195.94;4912715;29;20236;-90
2021/12/22 12:46:21;;;;;;;4.53;4.10;;;;;;;18.73;40.38;98184.88;4895902;29;20206;-90
2021/12/22 12:48:55;;;;;;;4.83;4.20;;;;;;;18.57;40.80;98156.91;4895833;29;20213;-91
2021/12/22 12:51:28;;;;;;;4.70;4.30;;;;;;;18.75;40.85;98188.38;4880992;29;20775;-90
2021/12/22 12:53:57;;;;;;;4.87;4.37;;;;;;;18.57;40.93;98151.81;4879543;29;20240;-90